sensor_id;sensor_type;location;lat;lon;timestamp;temperature;humidity
33109;HTU21D;19481;51.118;6.940;2023-07-16T00:02:17;19.82;59.77
33109;HTU21D;19481;51.118;6.940;2023-07-16T00:07:20;19.77;59.80
33109;HTU21D;19481;51.118;6.940;2023-07-16T00:12:21;19.75;59.66
33109;HTU21D;19481;51.118;6.940;2023-07-16T00:17:23;19.69;59.62
33109;HTU21D;19481;51.118;6.940;2023-07-16T00:22:26;19.60;59.85
33109;HTU21D;19481;51.118;6.940;2023-07-16T00:27:27;19.51;59.83
33109;HTU21D;19481;51.118;6.940;2023-07-16T00:32:29;19.48;59.64
33109;HTU21D;19481;51.118;6.940;2023-07-16T00:37:33;19.45;59.62
33109;HTU21D;19481;51.118;6.940;2023-07-16T00:42:35;19.32;59.89
33109;HTU21D;19481;51.118;6.940;2023-07-16T00:47:36;19.20;60.21
33109;HTU21D;19481;51.118;6.940;2023-07-16T00:52:40;19.07;60.57
33109;HTU21D;19481;51.118;6.940;2023-07-16T00:57:42;18.99;60.54
33109;HTU21D;19481;51.118;6.940;2023-07-16T01:02:43;18.91;60.73
33109;HTU21D;19481;51.118;6.940;2023-07-16T01:07:54;18.83;61.23
33109;HTU21D;19481;51.118;6.940;2023-07-16T01:12:56;18.77;60.86
33109;HTU21D;19481;51.118;6.940;2023-07-16T01:17:58;18.71;60.86
33109;HTU21D;19481;51.118;6.940;2023-07-16T01:23:35;18.58;62.61
33109;HTU21D;19481;51.118;6.940;2023-07-16T01:34:10;18.61;60.77
33109;HTU21D;19481;51.118;6.940;2023-07-16T01:39:13;18.56;60.83
33109;HTU21D;19481;51.118;6.940;2023-07-16T01:44:14;18.52;60.96
33109;HTU21D;19481;51.118;6.940;2023-07-16T01:49:17;18.52;60.87
33109;HTU21D;19481;51.118;6.940;2023-07-16T01:54:19;18.44;60.96
33109;HTU21D;19481;51.118;6.940;2023-07-16T01:59:20;18.40;61.12
33109;HTU21D;19481;51.118;6.940;2023-07-16T02:04:23;18.38;61.09
33109;HTU21D;19481;51.118;6.940;2023-07-16T02:09:25;18.42;60.85
33109;HTU21D;19481;51.118;6.940;2023-07-16T02:14:27;18.32;61.07
33109;HTU21D;19481;51.118;6.940;2023-07-16T02:19:30;18.28;61.03
33109;HTU21D;19481;51.118;6.940;2023-07-16T02:24:31;18.17;61.37
33109;HTU21D;19481;51.118;6.940;2023-07-16T02:29:33;18.17;61.09
33109;HTU21D;19481;51.118;6.940;2023-07-16T02:34:36;18.17;60.99
33109;HTU21D;19481;51.118;6.940;2023-07-16T02:39:38;18.09;60.99
33109;HTU21D;19481;51.118;6.940;2023-07-16T02:44:40;18.10;60.73
33109;HTU21D;19481;51.118;6.940;2023-07-16T02:49:46;17.90;61.20
33109;HTU21D;19481;51.118;6.940;2023-07-16T02:54:47;17.96;60.70
33109;HTU21D;19481;51.118;6.940;2023-07-16T02:59:49;17.87;60.81
33109;HTU21D;19481;51.118;6.940;2023-07-16T03:04:52;17.84;60.62
33109;HTU21D;19481;51.118;6.940;2023-07-16T03:09:54;17.72;60.92
33109;HTU21D;19481;51.118;6.940;2023-07-16T03:14:56;17.73;60.66
33109;HTU21D;19481;51.118;6.940;2023-07-16T03:19:59;17.68;60.55
33109;HTU21D;19481;51.118;6.940;2023-07-16T03:25:01;17.62;60.57
33109;HTU21D;19481;51.118;6.940;2023-07-16T03:30:03;17.61;60.38
33109;HTU21D;19481;51.118;6.940;2023-07-16T03:35:07;17.50;60.62
33109;HTU21D;19481;51.118;6.940;2023-07-16T03:40:13;17.55;60.23
33109;HTU21D;19481;51.118;6.940;2023-07-16T03:45:16;17.50;60.09
33109;HTU21D;19481;51.118;6.940;2023-07-16T03:50:19;17.52;59.83
33109;HTU21D;19481;51.118;6.940;2023-07-16T03:55:21;17.45;59.87
33109;HTU21D;19481;51.118;6.940;2023-07-16T04:00:23;17.44;59.80
33109;HTU21D;19481;51.118;6.940;2023-07-16T04:05:26;17.44;59.61
33109;HTU21D;19481;51.118;6.940;2023-07-16T04:10:28;17.49;59.28
33109;HTU21D;19481;51.118;6.940;2023-07-16T04:15:29;17.59;58.81
33109;HTU21D;19481;51.118;6.940;2023-07-16T04:20:32;17.52;59.07
33109;HTU21D;19481;51.118;6.940;2023-07-16T04:25:34;17.56;58.83
33109;HTU21D;19481;51.118;6.940;2023-07-16T04:30:36;17.60;58.69
33109;HTU21D;19481;51.118;6.940;2023-07-16T04:35:39;17.72;58.29
33109;HTU21D;19481;51.118;6.940;2023-07-16T04:40:41;17.93;57.67
33109;HTU21D;19481;51.118;6.940;2023-07-16T04:45:44;19.18;54.29
33109;HTU21D;19481;51.118;6.940;2023-07-16T04:50:48;20.43;51.58
33109;HTU21D;19481;51.118;6.940;2023-07-16T04:55:50;21.19;51.09
33109;HTU21D;19481;51.118;6.940;2023-07-16T05:00:51;21.94;50.47
33109;HTU21D;19481;51.118;6.940;2023-07-16T05:05:54;22.66;49.08
33109;HTU21D;19481;51.118;6.940;2023-07-16T05:10:56;23.09;48.66
33109;HTU21D;19481;51.118;6.940;2023-07-16T05:15:57;22.58;50.50
33109;HTU21D;19481;51.118;6.940;2023-07-16T05:21:00;20.13;57.00
33109;HTU21D;19481;51.118;6.940;2023-07-16T05:26:02;19.69;56.82
33109;HTU21D;19481;51.118;6.940;2023-07-16T05:31:03;19.58;55.97
33109;HTU21D;19481;51.118;6.940;2023-07-16T05:36:07;19.52;55.43
33109;HTU21D;19481;51.118;6.940;2023-07-16T05:41:09;21.34;50.24
33109;HTU21D;19481;51.118;6.940;2023-07-16T05:46:11;23.13;47.59
33109;HTU21D;19481;51.118;6.940;2023-07-16T05:51:13;23.90;46.44
33109;HTU21D;19481;51.118;6.940;2023-07-16T05:56:15;24.50;46.93
33109;HTU21D;19481;51.118;6.940;2023-07-16T06:01:17;25.19;46.09
33109;HTU21D;19481;51.118;6.940;2023-07-16T06:06:20;25.17;46.28
33109;HTU21D;19481;51.118;6.940;2023-07-16T06:11:21;25.24;46.37
33109;HTU21D;19481;51.118;6.940;2023-07-16T06:16:23;25.81;45.70
33109;HTU21D;19481;51.118;6.940;2023-07-16T06:21:26;25.84;45.67
33109;HTU21D;19481;51.118;6.940;2023-07-16T06:26:27;25.80;44.32
33109;HTU21D;19481;51.118;6.940;2023-07-16T06:31:29;26.75;43.84
33109;HTU21D;19481;51.118;6.940;2023-07-16T06:36:32;27.79;42.00
33109;HTU21D;19481;51.118;6.940;2023-07-16T06:41:34;25.84;46.03
33109;HTU21D;19481;51.118;6.940;2023-07-16T06:46:36;26.04;45.09
33109;HTU21D;19481;51.118;6.940;2023-07-16T06:51:39;25.86;44.85
33109;HTU21D;19481;51.118;6.940;2023-07-16T06:56:40;26.78;43.17
33109;HTU21D;19481;51.118;6.940;2023-07-16T07:01:42;26.19;42.67
33109;HTU21D;19481;51.118;6.940;2023-07-16T07:06:45;27.01;39.66
33109;HTU21D;19481;51.118;6.940;2023-07-16T07:11:46;26.38;41.94
33109;HTU21D;19481;51.118;6.940;2023-07-16T07:16:48;27.01;41.49
33109;HTU21D;19481;51.118;6.940;2023-07-16T07:21:51;26.89;34.12
33109;HTU21D;19481;51.118;6.940;2023-07-16T07:26:52;25.43;43.42
33109;HTU21D;19481;51.118;6.940;2023-07-16T07:31:54;26.25;38.76
33109;HTU21D;19481;51.118;6.940;2023-07-16T07:36:57;25.88;41.14
33109;HTU21D;19481;51.118;6.940;2023-07-16T07:41:58;26.92;39.27
33109;HTU21D;19481;51.118;6.940;2023-07-16T07:47:00;26.93;39.26
33109;HTU21D;19481;51.118;6.940;2023-07-16T07:52:04;28.02;34.98
33109;HTU21D;19481;51.118;6.940;2023-07-16T07:57:06;26.75;40.20
33109;HTU21D;19481;51.118;6.940;2023-07-16T08:02:07;26.84;38.69
33109;HTU21D;19481;51.118;6.940;2023-07-16T08:07:10;27.22;34.10
33109;HTU21D;19481;51.118;6.940;2023-07-16T08:12:12;27.22;36.69
33109;HTU21D;19481;51.118;6.940;2023-07-16T08:17:14;26.67;36.95
33109;HTU21D;19481;51.118;6.940;2023-07-16T08:22:17;27.57;34.34
33109;HTU21D;19481;51.118;6.940;2023-07-16T08:27:18;28.05;35.30
33109;HTU21D;19481;51.118;6.940;2023-07-16T08:32:20;28.10;35.44
33109;HTU21D;19481;51.118;6.940;2023-07-16T08:37:23;28.89;34.21
33109;HTU21D;19481;51.118;6.940;2023-07-16T08:42:25;28.32;35.10
33109;HTU21D;19481;51.118;6.940;2023-07-16T08:47:27;27.89;35.76
33109;HTU21D;19481;51.118;6.940;2023-07-16T08:52:30;27.54;34.61
33109;HTU21D;19481;51.118;6.940;2023-07-16T08:57:32;28.72;33.12
33109;HTU21D;19481;51.118;6.940;2023-07-16T09:02:34;28.87;33.12
33109;HTU21D;19481;51.118;6.940;2023-07-16T09:07:37;29.23;32.48
33109;HTU21D;19481;51.118;6.940;2023-07-16T09:12:41;28.78;30.86
33109;HTU21D;19481;51.118;6.940;2023-07-16T09:17:46;29.64;25.09
33109;HTU21D;19481;51.118;6.940;2023-07-16T09:22:49;27.55;34.84
33109;HTU21D;19481;51.118;6.940;2023-07-16T09:27:51;28.70;32.19
33109;HTU21D;19481;51.118;6.940;2023-07-16T09:32:53;28.97;32.06
33109;HTU21D;19481;51.118;6.940;2023-07-16T09:37:56;29.83;29.88
33109;HTU21D;19481;51.118;6.940;2023-07-16T09:42:58;29.41;31.36
33109;HTU21D;19481;51.118;6.940;2023-07-16T09:48:00;29.97;30.71
33109;HTU21D;19481;51.118;6.940;2023-07-16T09:53:04;29.54;28.68
33109;HTU21D;19481;51.118;6.940;2023-07-16T09:58:10;28.59;28.97
33109;HTU21D;19481;51.118;6.940;2023-07-16T10:03:14;26.78;34.16
33109;HTU21D;19481;51.118;6.940;2023-07-16T10:08:19;27.95;31.57
33109;HTU21D;19481;51.118;6.940;2023-07-16T10:13:22;28.52;27.10
33109;HTU21D;19481;51.118;6.940;2023-07-16T10:18:28;27.84;27.06
33109;HTU21D;19481;51.118;6.940;2023-07-16T10:23:39;28.71;25.60
33109;HTU21D;19481;51.118;6.940;2023-07-16T10:28:41;28.74;29.99
33109;HTU21D;19481;51.118;6.940;2023-07-16T10:33:42;29.85;28.02
33109;HTU21D;19481;51.118;6.940;2023-07-16T10:38:45;28.06;31.00
33109;HTU21D;19481;51.118;6.940;2023-07-16T10:43:47;27.63;31.64
33109;HTU21D;19481;51.118;6.940;2023-07-16T10:48:48;28.85;28.52
33109;HTU21D;19481;51.118;6.940;2023-07-16T10:53:51;28.62;29.31
33109;HTU21D;19481;51.118;6.940;2023-07-16T10:58:56;27.71;28.77
33109;HTU21D;19481;51.118;6.940;2023-07-16T11:04:00;26.49;32.42
33109;HTU21D;19481;51.118;6.940;2023-07-16T11:09:07;26.30;31.45
33109;HTU21D;19481;51.118;6.940;2023-07-16T11:14:09;26.18;31.98
33109;HTU21D;19481;51.118;6.940;2023-07-16T11:19:11;26.19;31.69
33109;HTU21D;19481;51.118;6.940;2023-07-16T11:24:14;26.70;30.50
33109;HTU21D;19481;51.118;6.940;2023-07-16T11:29:15;26.81;30.48
33109;HTU21D;19481;51.118;6.940;2023-07-16T11:34:19;26.11;31.67
33109;HTU21D;19481;51.118;6.940;2023-07-16T11:39:24;26.77;30.15
33109;HTU21D;19481;51.118;6.940;2023-07-16T11:44:33;26.48;30.68
33109;HTU21D;19481;51.118;6.940;2023-07-16T11:49:35;26.85;30.14
33109;HTU21D;19481;51.118;6.940;2023-07-16T11:54:38;27.21;29.54
33109;HTU21D;19481;51.118;6.940;2023-07-16T11:59:39;26.97;30.55
33109;HTU21D;19481;51.118;6.940;2023-07-16T12:04:41;26.17;31.99
33109;HTU21D;19481;51.118;6.940;2023-07-16T12:09:44;26.11;31.65
33109;HTU21D;19481;51.118;6.940;2023-07-16T12:14:46;25.77;32.17
33109;HTU21D;19481;51.118;6.940;2023-07-16T12:19:47;25.59;32.19
33109;HTU21D;19481;51.118;6.940;2023-07-16T12:24:50;25.90;31.42
33109;HTU21D;19481;51.118;6.940;2023-07-16T12:29:52;25.74;31.66
33109;HTU21D;19481;51.118;6.940;2023-07-16T12:34:53;25.98;31.12
33109;HTU21D;19481;51.118;6.940;2023-07-16T12:39:56;26.08;30.82
33109;HTU21D;19481;51.118;6.940;2023-07-16T12:44:58;27.15;28.70
33109;HTU21D;19481;51.118;6.940;2023-07-16T12:50:00;26.21;30.75
33109;HTU21D;19481;51.118;6.940;2023-07-16T12:55:04;27.30;28.94
33109;HTU21D;19481;51.118;6.940;2023-07-16T13:00:06;28.34;27.39
33109;HTU21D;19481;51.118;6.940;2023-07-16T13:05:10;27.11;30.16
33109;HTU21D;19481;51.118;6.940;2023-07-16T13:10:13;28.14;28.07
33109;HTU21D;19481;51.118;6.940;2023-07-16T13:15:14;27.40;29.95
33109;HTU21D;19481;51.118;6.940;2023-07-16T13:20:17;27.93;28.73
33109;HTU21D;19481;51.118;6.940;2023-07-16T13:25:20;27.97;28.49
33109;HTU21D;19481;51.118;6.940;2023-07-16T13:30:22;28.40;27.57
33109;HTU21D;19481;51.118;6.940;2023-07-16T13:35:24;28.27;28.42
33109;HTU21D;19481;51.118;6.940;2023-07-16T13:40:27;27.84;28.19
33109;HTU21D;19481;51.118;6.940;2023-07-16T13:45:28;28.12;28.35
33109;HTU21D;19481;51.118;6.940;2023-07-16T13:50:30;27.82;28.99
33109;HTU21D;19481;51.118;6.940;2023-07-16T13:55:33;27.53;29.17
33109;HTU21D;19481;51.118;6.940;2023-07-16T14:00:34;27.69;28.93
33109;HTU21D;19481;51.118;6.940;2023-07-16T14:05:36;27.38;29.35
33109;HTU21D;19481;51.118;6.940;2023-07-16T14:10:40;27.07;29.47
33109;HTU21D;19481;51.118;6.940;2023-07-16T14:15:42;27.10;29.42
33109;HTU21D;19481;51.118;6.940;2023-07-16T14:20:43;26.96;29.43
33109;HTU21D;19481;51.118;6.940;2023-07-16T14:25:46;26.64;29.75
33109;HTU21D;19481;51.118;6.940;2023-07-16T14:30:48;26.46;29.74
33109;HTU21D;19481;51.118;6.940;2023-07-16T14:35:49;26.73;29.41
33109;HTU21D;19481;51.118;6.940;2023-07-16T14:40:52;26.57;29.65
33109;HTU21D;19481;51.118;6.940;2023-07-16T14:45:54;26.61;29.55
33109;HTU21D;19481;51.118;6.940;2023-07-16T14:50:56;26.49;29.71
33109;HTU21D;19481;51.118;6.940;2023-07-16T14:55:59;26.34;29.75
33109;HTU21D;19481;51.118;6.940;2023-07-16T15:01:00;26.19;30.21
33109;HTU21D;19481;51.118;6.940;2023-07-16T15:06:04;26.03;30.39
33109;HTU21D;19481;51.118;6.940;2023-07-16T15:11:07;25.92;30.21
33109;HTU21D;19481;51.118;6.940;2023-07-16T15:16:08;25.71;30.83
33109;HTU21D;19481;51.118;6.940;2023-07-16T15:21:11;25.64;30.87
33109;HTU21D;19481;51.118;6.940;2023-07-16T15:26:14;25.58;30.88
33109;HTU21D;19481;51.118;6.940;2023-07-16T15:31:16;25.71;30.67
33109;HTU21D;19481;51.118;6.940;2023-07-16T15:36:18;25.87;30.41
33109;HTU21D;19481;51.118;6.940;2023-07-16T15:41:21;26.19;29.94
33109;HTU21D;19481;51.118;6.940;2023-07-16T15:46:25;26.28;30.00
33109;HTU21D;19481;51.118;6.940;2023-07-16T15:51:27;26.22;30.37
33109;HTU21D;19481;51.118;6.940;2023-07-16T15:56:30;26.12;30.43
33109;HTU21D;19481;51.118;6.940;2023-07-16T16:01:31;25.93;30.83
33109;HTU21D;19481;51.118;6.940;2023-07-16T16:06:33;25.86;30.76
33109;HTU21D;19481;51.118;6.940;2023-07-16T16:11:36;26.11;30.29
33109;HTU21D;19481;51.118;6.940;2023-07-16T16:16:37;26.21;30.24
33109;HTU21D;19481;51.118;6.940;2023-07-16T16:21:39;26.16;30.42
33109;HTU21D;19481;51.118;6.940;2023-07-16T16:26:42;26.06;30.64
33109;HTU21D;19481;51.118;6.940;2023-07-16T16:31:44;26.07;30.67
33109;HTU21D;19481;51.118;6.940;2023-07-16T16:36:46;25.98;30.78
33109;HTU21D;19481;51.118;6.940;2023-07-16T16:41:49;26.13;30.45
33109;HTU21D;19481;51.118;6.940;2023-07-16T16:46:50;26.39;30.03
33109;HTU21D;19481;51.118;6.940;2023-07-16T16:51:52;26.12;30.60
33109;HTU21D;19481;51.118;6.940;2023-07-16T16:56:55;26.09;30.52
33109;HTU21D;19481;51.118;6.940;2023-07-16T17:01:57;26.23;30.32
33109;HTU21D;19481;51.118;6.940;2023-07-16T17:06:58;26.03;30.61
33109;HTU21D;19481;51.118;6.940;2023-07-16T17:12:01;25.80;30.46
33109;HTU21D;19481;51.118;6.940;2023-07-16T17:17:05;25.78;30.80
33109;HTU21D;19481;51.118;6.940;2023-07-16T17:22:08;25.69;30.91
33109;HTU21D;19481;51.118;6.940;2023-07-16T17:27:11;25.59;30.93
33109;HTU21D;19481;51.118;6.940;2023-07-16T17:32:16;25.51;31.02
33109;HTU21D;19481;51.118;6.940;2023-07-16T17:37:18;25.36;31.17
33109;HTU21D;19481;51.118;6.940;2023-07-16T17:42:21;25.27;31.27
33109;HTU21D;19481;51.118;6.940;2023-07-16T17:47:23;25.21;31.37
33109;HTU21D;19481;51.118;6.940;2023-07-16T17:52:24;25.13;31.50
33109;HTU21D;19481;51.118;6.940;2023-07-16T17:57:27;25.05;31.61
33109;HTU21D;19481;51.118;6.940;2023-07-16T18:02:29;24.88;31.90
33109;HTU21D;19481;51.118;6.940;2023-07-16T18:07:30;24.76;32.01
33109;HTU21D;19481;51.118;6.940;2023-07-16T18:12:33;24.62;32.23
33109;HTU21D;19481;51.118;6.940;2023-07-16T18:17:35;24.57;32.30
33109;HTU21D;19481;51.118;6.940;2023-07-16T18:22:37;24.44;32.52
33109;HTU21D;19481;51.118;6.940;2023-07-16T18:27:40;24.35;32.63
33109;HTU21D;19481;51.118;6.940;2023-07-16T18:32:42;24.23;32.86
33109;HTU21D;19481;51.118;6.940;2023-07-16T18:37:43;24.20;32.89
33109;HTU21D;19481;51.118;6.940;2023-07-16T18:42:47;24.16;32.99
33109;HTU21D;19481;51.118;6.940;2023-07-16T18:47:48;24.01;33.25
33109;HTU21D;19481;51.118;6.940;2023-07-16T18:52:50;23.95;33.34
33109;HTU21D;19481;51.118;6.940;2023-07-16T18:57:53;23.88;33.47
33109;HTU21D;19481;51.118;6.940;2023-07-16T19:02:54;23.71;33.79
33109;HTU21D;19481;51.118;6.940;2023-07-16T19:07:56;23.66;33.86
33109;HTU21D;19481;51.118;6.940;2023-07-16T19:12:59;23.59;34.02
33109;HTU21D;19481;51.118;6.940;2023-07-16T19:18:02;23.50;34.19
33109;HTU21D;19481;51.118;6.940;2023-07-16T19:23:03;23.43;34.34
33109;HTU21D;19481;51.118;6.940;2023-07-16T19:28:06;23.35;34.39
33109;HTU21D;19481;51.118;6.940;2023-07-16T19:33:08;23.22;34.53
33109;HTU21D;19481;51.118;6.940;2023-07-16T19:38:10;23.12;34.68
33109;HTU21D;19481;51.118;6.940;2023-07-16T19:43:13;22.92;35.05
33109;HTU21D;19481;51.118;6.940;2023-07-16T19:48:15;22.86;35.05
33109;HTU21D;19481;51.118;6.940;2023-07-16T19:53:16;22.78;35.25
33109;HTU21D;19481;51.118;6.940;2023-07-16T19:58:19;22.69;35.43
33109;HTU21D;19481;51.118;6.940;2023-07-16T20:03:22;22.66;35.54
33109;HTU21D;19481;51.118;6.940;2023-07-16T20:08:24;22.58;35.69
33109;HTU21D;19481;51.118;6.940;2023-07-16T20:13:27;22.51;35.88
33109;HTU21D;19481;51.118;6.940;2023-07-16T20:18:28;22.40;35.94
33109;HTU21D;19481;51.118;6.940;2023-07-16T20:23:30;22.38;35.95
33109;HTU21D;19481;51.118;6.940;2023-07-16T20:28:33;22.42;35.83
33109;HTU21D;19481;51.118;6.940;2023-07-16T20:33:34;22.36;36.05
33109;HTU21D;19481;51.118;6.940;2023-07-16T20:38:36;22.23;36.46
33109;HTU21D;19481;51.118;6.940;2023-07-16T20:43:39;22.12;36.82
33109;HTU21D;19481;51.118;6.940;2023-07-16T20:48:41;21.99;37.10
33109;HTU21D;19481;51.118;6.940;2023-07-16T20:53:43;21.91;37.31
33109;HTU21D;19481;51.118;6.940;2023-07-16T20:58:47;21.80;37.53
33109;HTU21D;19481;51.118;6.940;2023-07-16T21:03:49;21.80;37.44
33109;HTU21D;19481;51.118;6.940;2023-07-16T21:08:50;21.75;37.66
33109;HTU21D;19481;51.118;6.940;2023-07-16T21:13:53;21.65;37.97
33109;HTU21D;19481;51.118;6.940;2023-07-16T21:18:55;21.48;38.25
33109;HTU21D;19481;51.118;6.940;2023-07-16T21:23:56;21.38;38.43
33109;HTU21D;19481;51.118;6.940;2023-07-16T21:28:59;21.32;38.59
33109;HTU21D;19481;51.118;6.940;2023-07-16T21:34:01;21.21;38.75
33109;HTU21D;19481;51.118;6.940;2023-07-16T21:39:03;21.09;39.04
33109;HTU21D;19481;51.118;6.940;2023-07-16T21:44:07;21.02;39.20
33109;HTU21D;19481;51.118;6.940;2023-07-16T21:49:08;20.93;39.41
33109;HTU21D;19481;51.118;6.940;2023-07-16T21:54:10;20.88;39.60
33109;HTU21D;19481;51.118;6.940;2023-07-16T21:59:13;20.79;39.88
33109;HTU21D;19481;51.118;6.940;2023-07-16T22:04:15;20.79;39.95
33109;HTU21D;19481;51.118;6.940;2023-07-16T22:09:17;20.72;40.16
33109;HTU21D;19481;51.118;6.940;2023-07-16T22:14:20;20.65;40.41
33109;HTU21D;19481;51.118;6.940;2023-07-16T22:19:22;20.55;40.78
33109;HTU21D;19481;51.118;6.940;2023-07-16T22:24:23;20.48;40.97
33109;HTU21D;19481;51.118;6.940;2023-07-16T22:29:27;20.45;41.16
33109;HTU21D;19481;51.118;6.940;2023-07-16T22:34:28;20.35;41.49
33109;HTU21D;19481;51.118;6.940;2023-07-16T22:39:30;20.25;41.94
33109;HTU21D;19481;51.118;6.940;2023-07-16T22:44:33;20.22;42.04
33109;HTU21D;19481;51.118;6.940;2023-07-16T22:49:35;20.18;42.16
33109;HTU21D;19481;51.118;6.940;2023-07-16T22:54:36;20.07;42.52
33109;HTU21D;19481;51.118;6.940;2023-07-16T22:59:41;19.83;43.26
33109;HTU21D;19481;51.118;6.940;2023-07-16T23:04:42;19.61;43.78
33109;HTU21D;19481;51.118;6.940;2023-07-16T23:09:44;19.62;43.74
33109;HTU21D;19481;51.118;6.940;2023-07-16T23:14:47;19.36;44.48
33109;HTU21D;19481;51.118;6.940;2023-07-16T23:19:48;19.16;44.93
33109;HTU21D;19481;51.118;6.940;2023-07-16T23:24:50;19.08;45.09
33109;HTU21D;19481;51.118;6.940;2023-07-16T23:29:53;18.92;45.58
33109;HTU21D;19481;51.118;6.940;2023-07-16T23:34:55;18.71;45.99
33109;HTU21D;19481;51.118;6.940;2023-07-16T23:39:56;18.81;45.64
33109;HTU21D;19481;51.118;6.940;2023-07-16T23:45:00;18.83;45.58
33109;HTU21D;19481;51.118;6.940;2023-07-16T23:50:01;18.72;45.83
33109;HTU21D;19481;51.118;6.940;2023-07-16T23:55:06;18.68;46.03
